Time;durP1;ratioP1;P1;durP2;ratioP2;P2;SDS_P1;SDS_P2;PMS_P1;PMS_P2;Temp;Humidity;BMP_temperature;BMP_pressure;BME280_temperature;BME280_humidity;BME280_pressure;Samples;Min_cycle;Max_cycle;Signal;HPM_P1;HPM_P2
2024/01/03 00:01:37;;;;;;;1.27;0.28;;;10.20;99.90;;;;;;5113754;28;20015;-74
2024/01/03 00:04:05;;;;;;;0.35;0.35;;;10.20;99.90;;;;;;5110695;28;20696;-74
2024/01/03 00:06:35;;;;;;;0.15;0.15;;;10.20;99.90;;;;;;5112048;28;20136;-74
2024/01/03 00:09:02;;;;;;;0.57;0.22;;;10.30;99.90;;;;;;5102326;28;20368;-75
2024/01/03 00:11:30;;;;;;;0.20;0.20;;;10.40;99.90;;;;;;5114763;28;20573;-74
2024/01/03 00:14:07;;;;;;;1.40;0.30;;;10.50;99.90;;;;;;5110260;28;20019;-74
2024/01/03 00:16:36;;;;;;;0.20;0.20;;;10.50;99.90;;;;;;5110153;28;20031;-74
2024/01/03 00:19:03;;;;;;;0.32;0.25;;;10.50;99.90;;;;;;5109813;28;20082;-74
2024/01/03 00:21:29;;;;;;;1.55;0.30;;;10.30;99.90;;;;;;5108891;28;20023;-74
2024/01/03 00:23:58;;;;;;;0.30;0.10;;;10.20;99.90;;;;;;5107916;28;20019;-75
2024/01/03 00:26:28;;;;;;;0.40;0.35;;;10.30;99.90;;;;;;5107912;28;20575;-75
2024/01/03 00:28:55;;;;;;;0.43;0.20;;;9.60;99.90;;;;;;5089065;28;20023;-74
2024/01/03 00:31:40;;;;;;;0.30;0.17;;;10.60;99.90;;;;;;5108391;28;20016;-74
2024/01/03 00:34:22;;;;;;;0.20;0.20;;;10.60;99.90;;;;;;5090674;28;20030;-76
2024/01/03 00:36:48;;;;;;;0.13;0.13;;;10.50;99.90;;;;;;5092124;28;20039;-75
2024/01/03 00:39:14;;;;;;;0.20;0.20;;;10.40;99.90;;;;;;5109004;28;20507;-74
2024/01/03 00:41:39;;;;;;;0.20;0.20;;;10.30;99.90;;;;;;5090859;28;20027;-75
2024/01/03 00:44:08;;;;;;;0.20;0.20;;;10.40;99.90;;;;;;5109132;28;20074;-75
2024/01/03 00:46:34;;;;;;;0.77;0.13;;;10.50;99.90;;;;;;5108606;28;20112;-75
2024/01/03 00:49:00;;;;;;;0.88;0.32;;;10.40;99.90;;;;;;5108671;28;20352;-74
2024/01/03 00:51:26;;;;;;;0.22;0.22;;;10.30;99.90;;;;;;5108790;28;20551;-74
2024/01/03 00:53:52;;;;;;;0.57;0.20;;;10.10;99.90;;;;;;5108767;28;20023;-75
2024/01/03 00:56:18;;;;;;;0.20;0.20;;;10.40;99.90;;;;;;5108229;28;20039;-74
2024/01/03 00:58:44;;;;;;;0.20;0.20;;;10.40;99.90;;;;;;5109157;28;20027;-75
2024/01/03 01:01:10;;;;;;;0.10;0.10;;;10.30;99.90;;;;;;5110602;28;20016;-74
2024/01/03 01:03:36;;;;;;;0.20;0.20;;;10.40;99.90;;;;;;5110896;28;20023;-74
2024/01/03 01:06:02;;;;;;;0.52;0.50;;;10.50;99.90;;;;;;5110475;28;20020;-75
2024/01/03 01:08:27;;;;;;;0.20;0.20;;;10.40;99.90;;;;;;5109939;28;20015;-75
2024/01/03 01:10:53;;;;;;;0.10;0.10;;;10.20;99.90;;;;;;5109639;28;20024;-74
2024/01/03 01:13:19;;;;;;;2.05;0.20;;;10.10;99.90;;;;;;5109940;28;20069;-74
2024/01/03 01:15:45;;;;;;;0.32;0.32;;;10.10;99.90;;;;;;5091984;28;20038;-75
2024/01/03 01:18:10;;;;;;;0.20;0.20;;;8.80;99.90;;;;;;5109880;28;20126;-74
2024/01/03 01:20:36;;;;;;;0.50;0.10;;;10.10;99.90;;;;;;5109786;28;20051;-74
2024/01/03 01:23:02;;;;;;;0.40;0.22;;;10.00;99.90;;;;;;5109873;28;20783;-74
2024/01/03 01:25:28;;;;;;;1.63;0.70;;;10.10;99.90;;;;;;5116847;28;20028;-75
2024/01/03 01:27:54;;;;;;;0.32;0.30;;;10.10;99.90;;;;;;5119794;28;20051;-74
2024/01/03 01:30:19;;;;;;;0.25;0.25;;;10.20;99.90;;;;;;5119814;28;20667;-74
2024/01/03 01:32:45;;;;;;;0.08;0.08;;;10.20;99.90;;;;;;5119903;28;20020;-74
2024/01/03 01:35:11;;;;;;;0.28;0.13;;;10.30;99.90;;;;;;5101219;28;20126;-74
2024/01/03 01:37:37;;;;;;;0.22;0.20;;;10.40;99.90;;;;;;5119630;28;20023;-74
2024/01/03 01:40:03;;;;;;;0.17;0.17;;;10.40;99.90;;;;;;5119285;28;20027;-74
2024/01/03 01:42:30;;;;;;;0.22;0.20;;;10.50;99.90;;;;;;5119676;28;20219;-74
2024/01/03 01:44:57;;;;;;;0.30;0.30;;;10.50;99.90;;;;;;5119575;28;20083;-74
2024/01/03 01:47:23;;;;;;;0.95;0.20;;;10.50;99.90;;;;;;5120355;28;20059;-74
2024/01/03 01:49:50;;;;;;;0.60;0.20;;;10.60;99.90;;;;;;5119357;28;20020;-74
2024/01/03 01:52:17;;;;;;;0.57;0.57;;;10.60;99.90;;;;;;5105014;28;20019;-74
2024/01/03 01:54:42;;;;;;;0.17;0.17;;;10.30;99.90;;;;;;5120426;28;20019;-75
2024/01/03 01:57:10;;;;;;;0.30;0.30;;;10.10;99.90;;;;;;5115872;28;20027;-75
2024/01/03 01:59:36;;;;;;;0.68;0.20;;;9.90;99.90;;;;;;5112640;28;20539;-75
2024/01/03 02:02:03;;;;;;;0.20;0.20;;;9.70;99.90;;;;;;5112798;28;20028;-76
2024/01/03 02:04:32;;;;;;;0.75;0.20;;;9.60;99.90;;;;;;5094380;28;20022;-75
2024/01/03 02:06:58;;;;;;;0.20;0.20;;;9.50;99.90;;;;;;5112784;28;20505;-75
2024/01/03 02:09:23;;;;;;;0.10;0.10;;;9.50;99.90;;;;;;5092195;28;20228;-77
2024/01/03 02:11:49;;;;;;;0.57;0.45;;;9.40;99.90;;;;;;5100105;28;20133;-75
2024/01/03 02:14:15;;;;;;;0.22;0.22;;;9.40;99.90;;;;;;5122366;28;20341;-75
2024/01/03 02:16:40;;;;;;;1.02;0.30;;;9.30;99.90;;;;;;5104489;28;20097;-76
2024/01/03 02:19:06;;;;;;;0.20;0.20;;;9.40;99.90;;;;;;5104386;28;20236;-76
2024/01/03 02:21:32;;;;;;;0.10;0.10;;;9.30;99.90;;;;;;5122540;28;20043;-75
2024/01/03 02:23:57;;;;;;;0.52;0.20;;;9.30;99.90;;;;;;5122478;28;20023;-76
2024/01/03 02:26:23;;;;;;;0.20;0.20;;;9.30;99.90;;;;;;5122303;28;20311;-75
2024/01/03 02:28:50;;;;;;;0.20;0.20;;;9.30;99.90;;;;;;5122024;28;20027;-75
2024/01/03 02:31:16;;;;;;;0.20;0.20;;;9.20;99.90;;;;;;5104695;28;20116;-76
2024/01/03 02:33:42;;;;;;;0.10;0.10;;;9.20;99.90;;;;;;5122074;28;20039;-75
2024/01/03 02:36:07;;;;;;;0.30;0.30;;;9.20;99.90;;;;;;5122732;28;20343;-77
2024/01/03 02:38:33;;;;;;;0.55;0.30;;;9.20;99.90;;;;;;5122055;28;20027;-76
2024/01/03 02:40:59;;;;;;;0.20;0.20;;;9.10;99.90;;;;;;5122093;28;20078;-76
2024/01/03 02:43:24;;;;;;;0.32;0.32;;;9.00;99.90;;;;;;5103653;28;20027;-76
2024/01/03 02:45:50;;;;;;;1.23;0.70;;;9.00;99.90;;;;;;5122006;28;20019;-76
2024/01/03 02:48:16;;;;;;;0.28;0.28;;;9.00;99.90;;;;;;5122118;28;20049;-77
2024/01/03 02:50:47;;;;;;;0.20;0.20;;;8.10;99.90;;;;;;5122404;28;20027;-76
2024/01/03 02:53:13;;;;;;;0.52;0.30;;;8.90;99.90;;;;;;5103552;28;20043;-75
2024/01/03 02:55:39;;;;;;;3.33;0.22;;;8.90;99.90;;;;;;5121608;28;20324;-76
2024/01/03 02:58:05;;;;;;;0.95;0.30;;;8.90;99.90;;;;;;5121826;28;20082;-76
2024/01/03 03:00:30;;;;;;;0.35;0.35;;;9.00;99.90;;;;;;5122165;28;20219;-75
2024/01/03 03:02:56;;;;;;;5.32;0.88;;;8.90;99.90;;;;;;5121818;28;20108;-76
2024/01/03 03:05:22;;;;;;;0.40;0.40;;;9.00;99.90;;;;;;5122204;28;20215;-76
2024/01/03 03:07:47;;;;;;;0.70;0.30;;;9.10;99.90;;;;;;5121867;28;20032;-76
2024/01/03 03:10:14;;;;;;;0.38;0.38;;;9.00;99.90;;;;;;5122112;28;20024;-76
2024/01/03 03:12:40;;;;;;;0.82;0.30;;;9.00;99.90;;;;;;5122709;28;20425;-75
2024/01/03 03:15:06;;;;;;;0.22;0.22;;;9.10;99.90;;;;;;5103057;28;20092;-75
2024/01/03 03:17:32;;;;;;;1.15;0.40;;;9.10;99.90;;;;;;5103046;28;20312;-76
2024/01/03 03:19:58;;;;;;;2.45;0.55;;;9.20;99.90;;;;;;5121371;28;20031;-76
2024/01/03 03:22:23;;;;;;;0.20;0.20;;;9.20;99.90;;;;;;5121279;28;20030;-75
2024/01/03 03:24:49;;;;;;;0.45;0.43;;;9.30;99.90;;;;;;5120940;28;20203;-76
2024/01/03 03:27:14;;;;;;;0.95;0.40;;;9.40;99.90;;;;;;5121540;28;20341;-75
2024/01/03 03:29:40;;;;;;;0.10;0.10;;;9.40;99.90;;;;;;5121348;28;20036;-75
2024/01/03 03:32:07;;;;;;;0.20;0.20;;;9.40;99.90;;;;;;5122035;28;20028;-76
2024/01/03 03:34:33;;;;;;;1.77;0.45;;;9.50;99.90;;;;;;5102452;28;20144;-75
2024/01/03 03:36:59;;;;;;;1.02;0.60;;;9.60;99.90;;;;;;5102412;28;20221;-76
2024/01/03 03:39:25;;;;;;;0.98;0.40;;;9.70;99.90;;;;;;5102892;28;20232;-75
2024/01/03 03:41:50;;;;;;;0.38;0.38;;;9.70;99.90;;;;;;5121019;28;20192;-75
2024/01/03 03:44:16;;;;;;;0.75;0.30;;;9.70;99.90;;;;;;5102562;28;20023;-74
2024/01/03 03:46:42;;;;;;;0.40;0.40;;;9.80;99.90;;;;;;5120590;28;20027;-75
2024/01/03 03:49:07;;;;;;;1.95;0.63;;;9.70;99.90;;;;;;5102686;28;20028;-75
2024/01/03 03:51:33;;;;;;;4.22;0.88;;;9.70;99.90;;;;;;5102522;28;20055;-75
2024/01/03 03:53:59;;;;;;;0.45;0.40;;;9.80;99.90;;;;;;5120964;28;20019;-75
2024/01/03 03:56:26;;;;;;;1.90;0.50;;;9.70;99.90;;;;;;5102677;28;20027;-75
2024/01/03 03:58:52;;;;;;;1.15;0.50;;;9.50;99.90;;;;;;5120179;28;20047;-74
2024/01/03 04:01:18;;;;;;;1.08;0.50;;;9.40;99.90;;;;;;5120607;28;20024;-75
2024/01/03 04:03:44;;;;;;;1.85;0.40;;;9.40;99.90;;;;;;5120437;28;20020;-75
2024/01/03 04:06:12;;;;;;;2.17;0.55;;;9.40;99.90;;;;;;5120333;28;20015;-76
2024/01/03 04:08:40;;;;;;;0.63;0.32;;;9.50;99.90;;;;;;5119945;28;20031;-75
2024/01/03 04:11:06;;;;;;;1.73;1.25;;;9.50;99.90;;;;;;5102067;28;20027;-75
2024/01/03 04:13:31;;;;;;;2.55;0.47;;;9.50;99.90;;;;;;5118945;28;20023;-75
2024/01/03 04:15:57;;;;;;;9.07;0.70;;;9.60;99.90;;;;;;5120682;28;20102;-76
2024/01/03 04:18:23;;;;;;;3.05;0.35;;;9.60;99.90;;;;;;5101973;28;20366;-75
2024/01/03 04:20:48;;;;;;;2.15;0.95;;;9.60;99.90;;;;;;5121010;28;20099;-74
2024/01/03 04:23:14;;;;;;;1.63;0.85;;;9.70;99.90;;;;;;5101309;28;20022;-75
2024/01/03 04:25:40;;;;;;;5.15;0.80;;;9.60;99.90;;;;;;5120538;28;20102;-75
2024/01/03 04:28:06;;;;;;;4.03;1.20;;;9.60;99.90;;;;;;5102337;28;20030;-75
2024/01/03 04:30:31;;;;;;;0.57;0.35;;;9.50;99.90;;;;;;5101835;28;20027;-75
2024/01/03 04:32:57;;;;;;;7.28;0.90;;;9.60;99.90;;;;;;5103292;28;20023;-75
2024/01/03 04:35:23;;;;;;;4.47;0.65;;;9.60;99.90;;;;;;5121392;28;20072;-76
2024/01/03 04:37:49;;;;;;;0.88;0.32;;;9.60;99.90;;;;;;5104293;28;20027;-75
2024/01/03 04:40:15;;;;;;;0.77;0.52;;;9.60;99.90;;;;;;5120152;28;20186;-75
2024/01/03 04:42:42;;;;;;;1.90;0.40;;;9.70;99.90;;;;;;5120351;28;20023;-75
2024/01/03 04:45:08;;;;;;;9.55;2.13;;;9.60;99.90;;;;;;5119994;28;20091;-75
2024/01/03 04:47:34;;;;;;;0.75;0.50;;;9.60;99.90;;;;;;5101514;28;20041;-75
2024/01/03 04:49:59;;;;;;;3.00;0.43;;;9.50;99.90;;;;;;5101719;28;20197;-75
2024/01/03 04:52:25;;;;;;;0.22;0.22;;;9.50;99.90;;;;;;5120392;28;20064;-75
2024/01/03 04:54:50;;;;;;;1.75;0.50;;;9.40;99.90;;;;;;5119595;28;20080;-75
2024/01/03 04:57:16;;;;;;;1.42;0.60;;;9.40;99.90;;;;;;5119752;28;20031;-75
2024/01/03 04:59:42;;;;;;;5.90;0.40;;;9.40;99.90;;;;;;5119535;28;20031;-75
2024/01/03 05:02:08;;;;;;;2.95;0.80;;;9.40;99.90;;;;;;5101761;28;20019;-75
2024/01/03 05:04:34;;;;;;;2.55;0.40;;;9.30;99.90;;;;;;5119846;28;20020;-75
2024/01/03 05:07:00;;;;;;;2.00;0.57;;;9.40;99.90;;;;;;5102320;28;20121;-75
2024/01/03 05:09:25;;;;;;;8.93;2.08;;;9.40;99.90;;;;;;5119992;28;20023;-75
2024/01/03 05:11:51;;;;;;;1.02;0.52;;;9.40;99.90;;;;;;5102733;28;20091;-74
2024/01/03 05:14:17;;;;;;;0.93;0.30;;;9.60;99.90;;;;;;5120030;28;20208;-75
2024/01/03 05:16:42;;;;;;;5.93;1.98;;;9.70;99.90;;;;;;5101588;28;20137;-74
2024/01/03 05:19:08;;;;;;;2.60;0.85;;;9.70;99.90;;;;;;5119435;28;20035;-75
2024/01/03 05:21:33;;;;;;;2.03;0.50;;;9.60;99.90;;;;;;5119834;28;20051;-75
2024/01/03 05:23:59;;;;;;;1.08;0.60;;;9.40;99.90;;;;;;5101757;28;20238;-74
2024/01/03 05:26:25;;;;;;;1.92;0.60;;;9.20;99.90;;;;;;5123276;28;20207;-75
2024/01/03 05:28:50;;;;;;;2.78;0.55;;;9.10;99.90;;;;;;5104678;28;20177;-75
2024/01/03 05:31:16;;;;;;;4.43;0.90;;;9.00;99.90;;;;;;5123056;28;20024;-74
2024/01/03 05:33:42;;;;;;;4.10;0.93;;;8.90;99.90;;;;;;5123112;28;20032;-75
2024/01/03 05:36:08;;;;;;;7.80;1.35;;;8.80;99.90;;;;;;5123846;28;20036;-75
2024/01/03 05:38:37;;;;;;;4.68;1.45;;;8.80;99.90;;;;;;5122483;28;20319;-75
2024/01/03 05:41:03;;;;;;;1.45;0.60;;;8.70;99.90;;;;;;5123139;28;20027;-75
2024/01/03 05:43:29;;;;;;;4.78;1.00;;;8.70;99.90;;;;;;5122723;28;20030;-75
2024/01/03 05:45:55;;;;;;;1.00;0.70;;;8.70;99.90;;;;;;5104978;28;20015;-75
2024/01/03 05:48:20;;;;;;;3.15;1.02;;;8.60;99.90;;;;;;5123159;28;20215;-76
2024/01/03 05:50:46;;;;;;;3.97;0.80;;;8.60;99.90;;;;;;5105617;28;20019;-76
2024/01/03 05:53:11;;;;;;;1.98;1.17;;;8.60;99.90;;;;;;5104892;28;20024;-77
2024/01/03 05:55:37;;;;;;;3.45;0.90;;;8.50;99.90;;;;;;5123035;28;20312;-75
2024/01/03 05:58:03;;;;;;;0.93;0.85;;;8.40;99.90;;;;;;5122718;28;20027;-75
2024/01/03 06:00:28;;;;;;;2.13;0.60;;;8.40;99.90;;;;;;5122875;28;20032;-76
2024/01/03 06:02:55;;;;;;;1.60;0.40;;;8.50;99.90;;;;;;5104497;28;20213;-75
2024/01/03 06:05:21;;;;;;;1.58;0.85;;;8.50;99.90;;;;;;5123130;28;20019;-76
2024/01/03 06:07:47;;;;;;;2.45;0.43;;;8.50;99.90;;;;;;5122630;28;20348;-75
2024/01/03 06:10:13;;;;;;;3.10;0.70;;;8.60;99.90;;;;;;5122826;28;20062;-76
2024/01/03 06:12:39;;;;;;;3.65;0.68;;;8.70;99.90;;;;;;5104350;28;20016;-75
2024/01/03 06:15:06;;;;;;;3.30;0.68;;;8.70;99.90;;;;;;5122618;28;20327;-76
2024/01/03 06:17:32;;;;;;;4.25;0.82;;;8.80;99.90;;;;;;5104243;28;20027;-75
2024/01/03 06:19:57;;;;;;;4.57;0.70;;;8.80;99.90;;;;;;5122787;28;20390;-75
2024/01/03 06:22:23;;;;;;;3.25;1.15;;;9.00;99.90;;;;;;5123104;28;20312;-75
2024/01/03 06:24:49;;;;;;;6.07;0.70;;;9.10;99.90;;;;;;5122386;28;20023;-75
2024/01/03 06:27:14;;;;;;;1.92;0.50;;;9.10;99.90;;;;;;5122232;28;20031;-75
2024/01/03 06:29:42;;;;;;;15.05;2.15;;;9.20;99.90;;;;;;5103916;28;20341;-75
2024/01/03 06:32:07;;;;;;;10.80;1.67;;;9.30;99.90;;;;;;5122528;28;20035;-75
2024/01/03 06:34:33;;;;;;;1.60;0.82;;;9.30;99.90;;;;;;5103544;28;20031;-77
2024/01/03 06:37:00;;;;;;;1.17;0.80;;;9.30;99.90;;;;;;5121830;28;20050;-76
2024/01/03 06:39:29;;;;;;;2.20;0.52;;;9.20;99.90;;;;;;5103832;28;20103;-77
2024/01/03 06:41:54;;;;;;;4.55;1.20;;;9.20;99.90;;;;;;5103446;28;20047;-75
2024/01/03 06:44:20;;;;;;;1.45;0.57;;;9.10;99.90;;;;;;5122149;28;20334;-75
2024/01/03 06:46:46;;;;;;;2.53;0.52;;;9.00;99.90;;;;;;5121885;28;20035;-76
2024/01/03 06:49:11;;;;;;;3.58;0.50;;;8.90;99.90;;;;;;5104298;28;20016;-75
2024/01/03 06:51:37;;;;;;;5.40;0.60;;;8.90;99.90;;;;;;5104293;28;20027;-76
2024/01/03 06:54:03;;;;;;;1.67;0.30;;;9.00;99.90;;;;;;5122096;28;20027;-75
2024/01/03 06:56:28;;;;;;;0.30;0.30;;;9.10;99.90;;;;;;5103720;28;20027;-75
2024/01/03 06:58:58;;;;;;;8.85;0.63;;;9.10;99.90;;;;;;5121621;28;20039;-75
2024/01/03 07:01:23;;;;;;;1.83;0.50;;;9.20;99.90;;;;;;5103777;28;20031;-75
2024/01/03 07:03:49;;;;;;;0.47;0.30;;;9.30;99.90;;;;;;5122279;28;20028;-75
2024/01/03 07:06:14;;;;;;;1.40;0.30;;;9.40;99.90;;;;;;5122064;28;20028;-76
2024/01/03 07:08:40;;;;;;;4.70;1.05;;;9.50;99.90;;;;;;5122148;28;20030;-75
2024/01/03 07:11:06;;;;;;;4.68;0.93;;;9.60;99.90;;;;;;5122822;28;20023;-75
2024/01/03 07:13:32;;;;;;;1.30;0.30;;;9.60;99.90;;;;;;5121653;28;20047;-75
2024/01/03 07:15:58;;;;;;;5.75;1.02;;;9.70;99.90;;;;;;5121276;28;20250;-74
2024/01/03 07:18:23;;;;;;;3.97;0.47;;;9.70;99.90;;;;;;5121120;28;20043;-75
2024/01/03 07:20:49;;;;;;;2.30;0.40;;;9.80;99.90;;;;;;5121227;28;20068;-75
2024/01/03 07:23:15;;;;;;;2.67;0.80;;;9.80;99.90;;;;;;5121096;28;20027;-75
2024/01/03 07:25:41;;;;;;;0.93;0.17;;;9.80;99.90;;;;;;5102456;28;20038;-75
2024/01/03 07:28:07;;;;;;;3.08;0.80;;;9.90;99.90;;;;;;5102924;28;20239;-74
2024/01/03 07:30:33;;;;;;;2.28;0.38;;;10.00;99.90;;;;;;5120856;28;20069;-75
2024/01/03 07:32:59;;;;;;;3.63;0.60;;;10.00;99.90;;;;;;5103365;28;20035;-74
2024/01/03 07:35:25;;;;;;;1.40;0.85;;;9.90;99.90;;;;;;5121104;28;20043;-76
2024/01/03 07:37:50;;;;;;;1.92;0.70;;;10.00;99.90;;;;;;5121249;28;20252;-74
2024/01/03 07:40:16;;;;;;;2.28;1.17;;;10.10;99.90;;;;;;5120824;28;20023;-75
2024/01/03 07:42:42;;;;;;;2.22;0.40;;;10.20;99.90;;;;;;5121785;28;20011;-75
2024/01/03 07:45:08;;;;;;;0.47;0.40;;;10.20;99.90;;;;;;5120649;28;20027;-75
2024/01/03 07:47:34;;;;;;;0.55;0.43;;;10.20;99.90;;;;;;5102269;28;20305;-74
2024/01/03 07:50:00;;;;;;;2.00;0.65;;;10.30;99.90;;;;;;5102300;28;20226;-75
2024/01/03 07:52:27;;;;;;;0.93;0.35;;;12.10;99.90;;;;;;5120570;28;20155;-75
2024/01/03 07:54:53;;;;;;;1.60;0.40;;;10.30;99.90;;;;;;5092008;28;20020;-75
2024/01/03 07:57:19;;;;;;;5.93;0.70;;;10.40;99.90;;;;;;5110463;28;20028;-75
2024/01/03 07:59:47;;;;;;;1.55;1.10;;;10.40;99.90;;;;;;5111523;28;20020;-75
2024/01/03 08:02:15;;;;;;;3.53;0.68;;;10.30;99.90;;;;;;5114396;28;20035;-75
2024/01/03 08:04:42;;;;;;;8.77;0.50;;;10.40;99.90;;;;;;5099393;28;20035;-74
2024/01/03 08:07:08;;;;;;;2.35;0.47;;;10.40;99.90;;;;;;5100601;28;20020;-75
2024/01/03 08:09:34;;;;;;;3.80;0.50;;;10.50;99.90;;;;;;5099505;28;20026;-74
2024/01/03 08:12:00;;;;;;;3.00;0.65;;;10.50;99.90;;;;;;5117845;28;20051;-76
2024/01/03 08:14:26;;;;;;;6.10;0.60;;;10.50;99.90;;;;;;5101503;28;20020;-75
2024/01/03 08:16:53;;;;;;;2.30;0.90;;;10.50;99.90;;;;;;5097659;28;20051;-75
2024/01/03 08:19:19;;;;;;;1.35;0.52;;;10.50;99.60;;;;;;5121693;28;20048;-75
2024/01/03 08:21:44;;;;;;;4.57;0.50;;;10.50;98.40;;;;;;5116415;28;20019;-75
2024/01/03 08:24:10;;;;;;;2.40;0.70;;;10.60;97.90;;;;;;5115569;28;20031;-75
2024/01/03 08:26:35;;;;;;;0.77;0.13;;;10.50;97.80;;;;;;5091235;28;20018;-75
2024/01/03 08:29:01;;;;;;;2.40;0.50;;;10.60;97.10;;;;;;5109198;28;20031;-75
2024/01/03 08:31:27;;;;;;;3.78;0.95;;;10.70;97.70;;;;;;5090032;28;20063;-74
2024/01/03 08:33:53;;;;;;;1.60;0.50;;;10.80;95.80;;;;;;5108454;28;20023;-74
2024/01/03 08:36:18;;;;;;;2.78;0.50;;;10.80;95.10;;;;;;5108502;28;20039;-74
2024/01/03 08:38:44;;;;;;;3.17;0.77;;;10.90;94.80;;;;;;5090355;28;20384;-75
2024/01/03 08:41:16;;;;;;;2.60;0.60;;;10.80;95.60;;;;;;5108765;28;20021;-74
2024/01/03 08:43:42;;;;;;;4.50;0.40;;;10.90;94.30;;;;;;5108985;28;20099;-74
2024/01/03 08:46:08;;;;;;;2.50;0.90;;;11.00;93.40;;;;;;5108493;28;20464;-74
2024/01/03 08:48:34;;;;;;;0.75;0.43;;;11.10;93.50;;;;;;5089906;28;20032;-74
2024/01/03 08:51:00;;;;;;;3.50;0.73;;;11.10;92.80;;;;;;5108351;28;20475;-74
2024/01/03 08:53:26;;;;;;;1.58;0.50;;;11.20;92.50;;;;;;5108636;28;20089;-74
2024/01/03 08:55:52;;;;;;;2.92;0.57;;;11.30;91.20;;;;;;5089787;28;20067;-74
2024/01/03 08:58:17;;;;;;;0.65;0.30;;;11.40;91.60;;;;;;5108901;28;20016;-74
2024/01/03 09:00:44;;;;;;;1.80;0.57;;;11.30;91.80;;;;;;5095285;28;20034;-74
2024/01/03 09:03:10;;;;;;;3.00;0.32;;;11.20;91.50;;;;;;5115082;28;20055;-75
2024/01/03 09:05:36;;;;;;;3.58;1.23;;;11.20;91.60;;;;;;5114986;28;20038;-74
2024/01/03 09:08:01;;;;;;;2.22;0.70;;;11.30;91.80;;;;;;5114739;28;20020;-74
2024/01/03 09:10:27;;;;;;;2.60;0.43;;;11.20;92.40;;;;;;5113971;28;20455;-75
2024/01/03 09:12:53;;;;;;;2.45;0.47;;;11.20;92.20;;;;;;5095729;28;20072;-74
2024/01/03 09:15:19;;;;;;;4.10;0.80;;;11.20;92.00;;;;;;5114030;28;20040;-74
2024/01/03 09:17:45;;;;;;;1.63;0.30;;;11.10;92.50;;;;;;5114176;28;20039;-74
2024/01/03 09:20:11;;;;;;;1.80;0.40;;;11.10;93.00;;;;;;5122756;28;20023;-74
2024/01/03 09:22:37;;;;;;;5.25;0.85;;;11.10;92.30;;;;;;5125026;28;20044;-74
2024/01/03 09:25:03;;;;;;;0.38;0.35;;;11.30;91.70;;;;;;5125292;28;20016;-74
2024/01/03 09:27:29;;;;;;;4.03;1.35;;;11.40;91.60;;;;;;5100486;28;20024;-75
2024/01/03 09:29:55;;;;;;;0.98;0.30;;;11.40;92.10;;;;;;5115643;28;20216;-75
2024/01/03 09:32:21;;;;;;;1.55;0.63;;;11.50;92.10;;;;;;5116929;28;20020;-75
2024/01/03 09:34:46;;;;;;;1.10;0.30;;;11.50;91.80;;;;;;5102763;28;21924;-74
2024/01/03 09:37:13;;;;;;;1.73;0.35;;;11.50;91.80;;;;;;5123609;28;20035;-75
2024/01/03 09:39:40;;;;;;;2.22;0.32;;;11.50;91.60;;;;;;5106639;28;20061;-75
2024/01/03 09:42:07;;;;;;;1.05;0.50;;;11.60;91.20;;;;;;5099783;28;20030;-74
2024/01/03 09:44:33;;;;;;;1.23;0.40;;;11.60;90.90;;;;;;5117136;27;20135;-73
2024/01/03 09:46:59;;;;;;;3.33;0.45;;;11.70;90.50;;;;;;5102710;28;20027;-72
2024/01/03 09:49:25;;;;;;;4.72;0.75;;;11.90;90.90;;;;;;5114472;28;20425;-73
2024/01/03 09:51:52;;;;;;;2.22;0.40;;;11.80;90.90;;;;;;5115667;28;20032;-73
2024/01/03 09:54:19;;;;;;;1.90;1.13;;;11.70;90.10;;;;;;5123708;28;20058;-74
2024/01/03 09:56:47;;;;;;;3.13;0.75;;;11.70;90.40;;;;;;5116809;28;20031;-74
2024/01/03 09:59:17;;;;;;;1.90;0.60;;;11.70;91.00;;;;;;5122432;28;20023;-73
2024/01/03 10:01:54;;;;;;;1.77;0.38;;;11.80;90.20;;;;;;5123869;28;20019;-74
2024/01/03 10:04:20;;;;;;;0.47;0.35;;;11.90;90.70;;;;;;5124028;28;20026;-76
2024/01/03 10:06:54;;;;;;;2.95;0.32;;;11.90;91.10;;;;;;5124275;28;20209;-73
2024/01/03 10:09:20;;;;;;;0.88;0.38;;;11.90;90.80;;;;;;5124511;28;20023;-73
2024/01/03 10:11:47;;;;;;;2.60;0.73;;;11.80;91.20;;;;;;5121730;28;20208;-75
2024/01/03 10:14:22;;;;;;;0.60;0.28;;;11.80;91.20;;;;;;5120952;28;20328;-74
2024/01/03 10:16:48;;;;;;;1.35;0.40;;;11.80;91.00;;;;;;5123214;28;20035;-74
2024/01/03 10:19:15;;;;;;;2.13;0.40;;;11.90;91.20;;;;;;5123012;28;20039;-74
2024/01/03 10:21:52;;;;;;;0.77;0.40;;;11.90;90.90;;;;;;5104190;28;20020;-73
2024/01/03 10:24:19;;;;;;;1.35;0.35;;;11.40;90.70;;;;;;5123134;28;20024;-74
2024/01/03 10:26:45;;;;;;;5.22;0.85;;;12.10;90.80;;;;;;5122195;28;20038;-71
2024/01/03 10:29:18;;;;;;;1.77;0.30;;;12.10;90.50;;;;;;5121786;28;20026;-73
2024/01/03 10:31:48;;;;;;;0.22;0.22;;;12.20;90.20;;;;;;5121338;28;20023;-74
2024/01/03 10:34:22;;;;;;;0.22;0.22;;;12.30;88.10;;;;;;5122529;28;20023;-74
2024/01/03 10:36:49;;;;;;;0.30;0.30;;;12.30;88.30;;;;;;5118233;28;20043;-75
2024/01/03 10:39:17;;;;;;;0.57;0.50;;;12.30;87.70;;;;;;5135599;27;20081;-74
2024/01/03 10:41:43;;;;;;;0.35;0.30;;;12.30;87.00;;;;;;5122360;28;20024;-74
2024/01/03 10:44:11;;;;;;;1.17;0.20;;;12.20;88.10;;;;;;5122584;28;20166;-74
2024/01/03 10:46:37;;;;;;;0.65;0.20;;;12.10;88.90;;;;;;5124199;27;20366;-75
2024/01/03 10:49:06;;;;;;;0.75;0.30;;;12.00;87.80;;;;;;5115146;27;20023;-74
2024/01/03 10:51:37;;;;;;;1.00;0.20;;;12.10;88.20;;;;;;5134291;27;20023;-74
2024/01/03 10:54:04;;;;;;;1.17;0.70;;;12.20;87.60;;;;;;5115859;27;20051;-76
2024/01/03 10:56:37;;;;;;;1.75;0.30;;;12.40;85.40;;;;;;5117053;27;20035;-75
2024/01/03 10:59:05;;;;;;;4.25;0.60;;;12.60;86.20;;;;;;5132770;27;20105;-75
2024/01/03 11:01:44;;;;;;;0.10;0.10;;;12.50;85.60;;;;;;5141843;27;20341;-74
2024/01/03 11:04:49;;;;;;;0.30;0.25;;;12.40;86.10;;;;;;5143214;27;20030;-74
2024/01/03 11:07:25;;;;;;;2.30;0.35;;;12.10;90.60;;;;;;5143184;27;20264;-75
2024/01/03 11:09:51;;;;;;;1.33;0.75;;;11.90;90.20;;;;;;5142924;27;20019;-74
2024/01/03 11:12:19;;;;;;;0.30;0.30;;;12.00;90.60;;;;;;5141849;27;20021;-74
2024/01/03 11:14:45;;;;;;;1.38;0.20;;;12.20;89.00;;;;;;5143388;27;20104;-74
2024/01/03 11:17:11;;;;;;;0.93;0.47;;;12.30;89.20;;;;;;5139581;27;20035;-74
2024/01/03 11:19:39;;;;;;;0.63;0.47;;;12.50;89.00;;;;;;5140902;27;20039;-77
2024/01/03 11:22:05;;;;;;;1.25;0.15;;;12.60;88.80;;;;;;5095872;28;20035;-76
2024/01/03 11:24:31;;;;;;;0.03;0.03;;;12.60;87.60;;;;;;5098650;28;20091;-76
2024/01/03 11:27:05;;;;;;;6.32;0.57;;;12.60;87.30;;;;;;5098454;28;20483;-75
2024/01/03 11:29:49;;;;;;;0.47;0.32;;;12.50;90.30;;;;;;5099172;28;20389;-74
2024/01/03 11:32:26;;;;;;;3.50;0.20;;;12.40;90.20;;;;;;5098529;28;20032;-76
2024/01/03 11:34:52;;;;;;;1.77;0.50;;;12.40;90.40;;;;;;5098811;28;20328;-74
2024/01/03 11:37:20;;;;;;;0.60;0.55;;;12.40;90.40;;;;;;5100120;28;20072;-74
2024/01/03 11:39:50;;;;;;;0.73;0.30;;;12.50;89.90;;;;;;5105966;28;20031;-75
2024/01/03 11:42:28;;;;;;;9.32;0.73;;;12.50;91.10;;;;;;5101887;28;20031;-75
2024/01/03 11:45:08;;;;;;;1.42;0.35;;;12.40;92.00;;;;;;5104044;28;20023;-76
2024/01/03 11:47:38;;;;;;;2.50;0.45;;;12.20;92.00;;;;;;5122336;28;20196;-75
2024/01/03 11:50:05;;;;;;;1.83;0.60;;;12.10;92.50;;;;;;5103876;28;20035;-75
2024/01/03 11:52:38;;;;;;;0.98;0.60;;;12.00;93.30;;;;;;5122247;28;20202;-76
2024/01/03 11:55:10;;;;;;;0.98;0.30;;;11.90;94.10;;;;;;5121823;28;20254;-76
2024/01/03 11:57:43;;;;;;;2.00;0.30;;;11.90;94.10;;;;;;5100583;28;20047;-76
2024/01/03 12:00:20;;;;;;;1.58;0.30;;;12.00;94.80;;;;;;5115791;28;20023;-75
2024/01/03 12:02:50;;;;;;;0.57;0.38;;;12.00;95.00;;;;;;5098533;28;20060;-76
2024/01/03 12:05:16;;;;;;;2.13;0.25;;;12.00;95.00;;;;;;5116851;28;20310;-76
2024/01/03 12:07:42;;;;;;;0.32;0.22;;;11.90;95.20;;;;;;5110770;28;20084;-74
2024/01/03 12:10:10;;;;;;;1.35;0.28;;;11.90;96.20;;;;;;5116197;28;20019;-74
2024/01/03 12:12:36;;;;;;;1.23;0.30;;;11.90;94.90;;;;;;5118411;28;20039;-73
2024/01/03 12:15:02;;;;;;;0.35;0.32;;;11.90;95.20;;;;;;5119981;28;20028;-74
2024/01/03 12:17:30;;;;;;;0.30;0.20;;;11.90;95.40;;;;;;5118586;28;20031;-75
2024/01/03 12:20:09;;;;;;;0.35;0.22;;;11.90;95.60;;;;;;5114526;28;20358;-73
2024/01/03 12:22:35;;;;;;;6.15;0.50;;;12.00;95.20;;;;;;5112511;28;20028;-76
2024/01/03 12:25:01;;;;;;;0.55;0.30;;;12.00;94.70;;;;;;5111876;28;20028;-73
2024/01/03 12:27:27;;;;;;;1.88;0.28;;;11.90;94.90;;;;;;5102132;28;20078;-75
2024/01/03 12:30:12;;;;;;;1.13;0.43;;;12.00;95.30;;;;;;5119147;28;20196;-74
2024/01/03 12:32:38;;;;;;;0.65;0.20;;;12.00;94.50;;;;;;5117192;28;20031;-74
2024/01/03 12:35:04;;;;;;;3.60;0.75;;;12.10;94.50;;;;;;5117150;28;20046;-75
2024/01/03 12:37:29;;;;;;;0.30;0.15;;;12.20;94.10;;;;;;5114327;28;20048;-75
2024/01/03 12:39:55;;;;;;;1.23;0.20;;;12.20;93.60;;;;;;5117051;28;20030;-74
2024/01/03 12:42:21;;;;;;;2.53;0.50;;;12.30;93.20;;;;;;5115949;28;20020;-76
2024/01/03 12:44:46;;;;;;;2.63;0.35;;;12.40;93.30;;;;;;5113344;28;20023;-75
2024/01/03 12:47:13;;;;;;;1.20;0.32;;;12.40;92.80;;;;;;5119583;28;20421;-75
2024/01/03 12:49:40;;;;;;;2.55;0.30;;;12.50;92.80;;;;;;5116928;28;20024;-76